createdAt,value
2022-07-25T00:01:11.910Z,5.17
2022-07-25T00:03:39.143Z,5.90
2022-07-25T00:06:06.899Z,5.90
2022-07-25T00:08:40.065Z,5.80
2022-07-25T00:11:06.852Z,5.60
2022-07-25T00:13:34.034Z,6.07
2022-07-25T00:16:00.740Z,6.03
2022-07-25T00:18:27.422Z,5.37
2022-07-25T00:20:54.072Z,5.63
2022-07-25T00:23:20.675Z,6.00
2022-07-25T00:25:47.300Z,6.03
2022-07-25T00:28:13.964Z,5.60
2022-07-25T00:30:40.957Z,5.87
2022-07-25T00:33:07.534Z,5.80
2022-07-25T00:35:34.198Z,5.77
2022-07-25T00:38:01.056Z,5.77
2022-07-25T00:40:27.858Z,5.43
2022-07-25T00:42:54.510Z,5.93
2022-07-25T00:45:21.104Z,6.27
2022-07-25T00:47:47.742Z,6.13
2022-07-25T00:50:14.412Z,6.03
2022-07-25T00:52:41.178Z,6.53
2022-07-25T00:55:08.488Z,6.17
2022-07-25T00:57:35.179Z,6.10
2022-07-25T01:00:02.253Z,5.30
2022-07-25T01:02:28.944Z,6.33
2022-07-25T01:04:56.989Z,6.30
2022-07-25T01:07:23.781Z,6.50
2022-07-25T01:09:51.167Z,6.47
2022-07-25T01:12:17.941Z,6.00
2022-07-25T01:14:44.548Z,6.80
2022-07-25T01:17:13.216Z,6.07
2022-07-25T01:19:39.838Z,6.10
2022-07-25T01:22:06.618Z,6.10
2022-07-25T01:24:35.225Z,6.17
2022-07-25T01:27:02.800Z,5.80
2022-07-25T01:29:29.405Z,6.40
2022-07-25T01:31:56.080Z,5.63
2022-07-25T01:34:22.895Z,6.40
2022-07-25T01:36:49.547Z,6.43
2022-07-25T01:39:16.302Z,6.10
2022-07-25T01:41:42.889Z,6.43
2022-07-25T01:44:09.958Z,5.60
2022-07-25T01:46:36.955Z,6.50
2022-07-25T01:49:04.381Z,5.90
2022-07-25T01:51:31.123Z,6.13
2022-07-25T01:53:57.714Z,6.37
2022-07-25T01:56:24.326Z,6.30
2022-07-25T01:58:50.931Z,6.27
2022-07-25T02:01:17.719Z,5.70
2022-07-25T02:03:48.228Z,6.03
2022-07-25T02:06:14.861Z,6.20
2022-07-25T02:08:41.467Z,6.17
2022-07-25T02:11:08.098Z,6.00
2022-07-25T02:13:34.815Z,5.83
2022-07-25T02:16:01.463Z,5.50
2022-07-25T02:18:28.078Z,6.40
2022-07-25T02:20:54.711Z,5.70
2022-07-25T02:23:21.294Z,5.50
2022-07-25T02:25:47.879Z,5.67
2022-07-25T02:28:14.517Z,5.63
2022-07-25T02:30:41.202Z,5.47
2022-07-25T02:33:08.092Z,5.80
2022-07-25T02:35:34.990Z,5.40
2022-07-25T02:38:02.059Z,5.70
2022-07-25T02:40:28.769Z,5.63
2022-07-25T02:42:55.460Z,5.77
2022-07-25T02:45:22.071Z,5.63
2022-07-25T02:47:48.788Z,5.90
2022-07-25T02:50:15.590Z,5.73
2022-07-25T02:52:43.174Z,5.50
2022-07-25T02:55:10.992Z,6.03
2022-07-25T02:57:37.632Z,6.33
2022-07-25T03:00:05.880Z,5.73
2022-07-25T03:02:32.461Z,6.53
2022-07-25T03:04:59.074Z,6.23
2022-07-25T03:07:25.710Z,6.67
2022-07-25T03:09:52.335Z,7.13
2022-07-25T03:12:19.053Z,6.53
2022-07-25T03:14:45.660Z,5.80
2022-07-25T03:17:12.333Z,5.87
2022-07-25T03:19:38.988Z,5.97
2022-07-25T03:22:05.653Z,5.80
2022-07-25T03:24:32.301Z,6.13
2022-07-25T03:26:58.953Z,6.47
2022-07-25T03:29:25.531Z,5.77
2022-07-25T03:31:52.172Z,5.93
2022-07-25T03:34:18.874Z,6.03
2022-07-25T03:36:45.527Z,5.30
2022-07-25T03:39:12.274Z,5.60
2022-07-25T03:41:38.882Z,5.80
2022-07-25T03:44:05.884Z,5.47
2022-07-25T03:46:32.731Z,5.70
2022-07-25T03:48:59.437Z,5.93
2022-07-25T03:51:26.137Z,5.57
2022-07-25T03:54:01.842Z,5.63
2022-07-25T03:56:49.025Z,4.90
2022-07-25T03:59:17.935Z,5.30
2022-07-25T04:01:46.224Z,5.50
2022-07-25T04:04:13.282Z,5.63
2022-07-25T04:06:40.800Z,5.97
2022-07-25T04:09:08.999Z,5.67
2022-07-25T04:11:36.030Z,6.03
2022-07-25T04:14:02.917Z,5.50
2022-07-25T04:16:29.794Z,5.10
2022-07-25T04:18:57.238Z,5.07
2022-07-25T04:21:24.891Z,5.30
2022-07-25T04:23:51.619Z,5.10
2022-07-25T04:26:18.673Z,4.77
2022-07-25T04:28:45.466Z,5.27
2022-07-25T04:31:12.186Z,5.37
2022-07-25T04:33:40.059Z,4.93
2022-07-25T04:36:08.320Z,5.90
2022-07-25T04:38:34.978Z,5.47
2022-07-25T04:41:01.764Z,5.07
2022-07-25T04:43:28.765Z,5.30
2022-07-25T04:45:55.586Z,5.63
2022-07-25T04:48:22.189Z,5.60
2022-07-25T04:50:49.223Z,5.10
2022-07-25T04:53:15.829Z,4.83
2022-07-25T04:55:42.438Z,5.07
2022-07-25T04:58:09.058Z,5.17
2022-07-25T05:00:35.736Z,5.30
2022-07-25T05:03:02.426Z,5.47
2022-07-25T05:05:29.098Z,5.40
2022-07-25T05:07:58.625Z,5.80
2022-07-25T05:10:26.705Z,5.13
2022-07-25T05:12:53.701Z,5.73
2022-07-25T05:15:20.612Z,4.93
2022-07-25T05:17:47.370Z,5.30
2022-07-25T05:20:15.056Z,5.10
2022-07-25T05:22:42.480Z,5.67
2022-07-25T05:25:10.998Z,5.40
2022-07-25T05:27:38.374Z,5.00
2022-07-25T05:30:07.077Z,4.83
2022-07-25T05:32:33.775Z,5.20
2022-07-25T05:35:00.670Z,5.40
2022-07-25T05:37:27.254Z,5.03
2022-07-25T05:39:53.845Z,5.10
2022-07-25T05:42:20.460Z,5.40
2022-07-25T05:44:47.070Z,4.93
2022-07-25T05:47:14.045Z,5.80
2022-07-25T05:49:40.633Z,5.43
2022-07-25T05:52:12.483Z,5.60
2022-07-25T05:54:39.714Z,5.37
2022-07-25T05:57:06.296Z,5.20
2022-07-25T05:59:32.865Z,5.70
2022-07-25T06:02:01.652Z,5.50
2022-07-25T06:04:28.440Z,5.27
2022-07-25T06:06:55.079Z,5.50
2022-07-25T06:09:23.882Z,5.37
2022-07-25T06:11:59.988Z,5.70
2022-07-25T06:14:28.422Z,5.27
2022-07-25T06:16:55.457Z,5.33
2022-07-25T06:19:22.203Z,5.07
2022-07-25T06:21:49.227Z,5.33
2022-07-25T06:24:15.810Z,5.23
2022-07-25T06:26:42.721Z,5.63
2022-07-25T06:29:09.364Z,4.83
2022-07-25T06:31:36.027Z,5.43
2022-07-25T06:34:02.937Z,4.53
2022-07-25T06:36:32.659Z,5.20
2022-07-25T06:38:59.932Z,4.63
2022-07-25T06:41:26.768Z,5.07
2022-07-25T06:43:53.375Z,5.22
2022-07-25T06:46:20.335Z,5.22
2022-07-25T06:48:47.222Z,4.93
2022-07-25T06:51:14.046Z,5.43
2022-07-25T06:53:40.834Z,5.13
2022-07-25T06:56:07.702Z,5.00
2022-07-25T06:58:34.349Z,5.30
2022-07-25T07:01:01.366Z,5.47
2022-07-25T07:03:28.302Z,5.22
2022-07-25T07:05:55.448Z,5.38
2022-07-25T07:08:22.171Z,5.00
2022-07-25T07:10:48.835Z,4.60
2022-07-25T07:13:23.898Z,4.57
2022-07-25T07:15:51.415Z,4.43
2022-07-25T07:18:19.582Z,5.07
2022-07-25T07:20:47.460Z,5.13
2022-07-25T07:23:16.944Z,4.80
2022-07-25T07:25:46.755Z,5.22
2022-07-25T07:28:13.770Z,4.90
2022-07-25T07:33:27.175Z,5.00
2022-07-25T07:35:55.860Z,4.50
2022-07-25T07:38:24.256Z,4.53
2022-07-25T07:40:50.931Z,4.50
2022-07-25T07:43:17.587Z,4.32
2022-07-25T07:45:44.659Z,3.95
2022-07-25T07:48:11.383Z,4.65
2022-07-25T07:50:38.274Z,4.57
2022-07-25T07:53:05.164Z,4.32
2022-07-25T07:55:55.396Z,4.30
2022-07-25T07:58:22.265Z,3.88
2022-07-25T08:00:51.463Z,4.43
2022-07-25T08:03:20.714Z,4.00
2022-07-25T08:05:49.065Z,4.00
2022-07-25T08:08:16.226Z,4.30
2022-07-25T08:10:45.645Z,4.07
2022-07-25T08:13:17.494Z,4.60
2022-07-25T08:15:46.101Z,4.32
2022-07-25T08:18:17.925Z,4.30
2022-07-25T08:20:45.900Z,4.05
2022-07-25T08:23:12.775Z,4.22
2022-07-25T08:25:39.850Z,3.75
2022-07-25T08:28:07.088Z,3.80
2022-07-25T08:30:35.331Z,3.90
2022-07-25T08:33:06.063Z,3.55
2022-07-25T08:35:34.445Z,3.50
2022-07-25T08:38:03.108Z,3.85
2022-07-25T08:40:31.147Z,3.65
2022-07-25T08:43:01.078Z,4.10
2022-07-25T08:45:28.544Z,3.60
2022-07-25T08:47:55.981Z,3.63
2022-07-25T08:50:28.341Z,3.95
2022-07-25T08:53:10.387Z,3.30
2022-07-25T08:55:45.003Z,3.15
2022-07-25T08:58:16.131Z,3.88
2022-07-25T09:00:43.611Z,3.78
2022-07-25T09:03:11.179Z,3.85
2022-07-25T09:05:38.545Z,3.88
2022-07-25T09:08:17.510Z,3.90
2022-07-25T09:10:52.100Z,3.88
2022-07-25T09:13:21.214Z,3.88
2022-07-25T09:15:49.645Z,4.05
2022-07-25T09:18:21.901Z,4.03
2022-07-25T09:20:50.949Z,3.78
2022-07-25T09:23:30.901Z,4.60
2022-07-25T09:26:14.565Z,4.35
2022-07-25T09:28:43.917Z,4.50
2022-07-25T09:31:11.564Z,4.00
2022-07-25T09:33:45.889Z,4.38
2022-07-25T09:36:13.351Z,4.20
2022-07-25T09:38:40.013Z,4.03
2022-07-25T09:41:07.599Z,4.10
2022-07-25T09:43:44.561Z,4.40
2022-07-25T09:46:12.483Z,4.55
2022-07-25T09:48:40.758Z,4.25
2022-07-25T09:51:07.831Z,4.43
2022-07-25T09:53:34.755Z,4.45
2022-07-25T09:56:01.749Z,5.00
2022-07-25T09:58:29.369Z,4.05
2022-07-25T10:01:02.781Z,4.15
2022-07-25T10:03:50.282Z,4.03
2022-07-25T10:06:20.573Z,4.45
2022-07-25T10:08:48.509Z,4.20
2022-07-25T10:11:23.859Z,4.50
2022-07-25T10:13:50.707Z,4.25
2022-07-25T10:16:20.661Z,4.38
2022-07-25T10:18:56.752Z,4.80
2022-07-25T10:21:27.396Z,4.40
2022-07-25T10:24:04.131Z,4.18
2022-07-25T10:26:32.603Z,4.25
2022-07-25T10:29:01.560Z,4.13
2022-07-25T10:31:39.505Z,4.45
2022-07-25T10:34:08.814Z,4.57
2022-07-25T10:36:45.206Z,4.75
2022-07-25T10:39:13.793Z,4.43
2022-07-25T10:41:42.542Z,4.70
2022-07-25T10:44:15.230Z,4.78
2022-07-25T10:46:44.897Z,4.53
2022-07-25T10:49:19.613Z,4.53
2022-07-25T10:51:59.755Z,4.53
2022-07-25T10:54:26.452Z,4.82
2022-07-25T10:56:58.144Z,4.70
2022-07-25T10:59:35.385Z,4.72
2022-07-25T11:02:08.234Z,5.05
2022-07-25T11:04:36.355Z,4.28
2022-07-25T11:07:11.227Z,4.50
2022-07-25T11:09:38.877Z,4.75
2022-07-25T11:12:06.185Z,4.95
2022-07-25T11:14:41.222Z,4.57
2022-07-25T11:17:13.024Z,5.10
2022-07-25T11:19:39.714Z,5.38
2022-07-25T11:22:06.519Z,5.00
2022-07-25T11:24:40.306Z,5.50
2022-07-25T11:27:12.475Z,5.10
2022-07-25T11:29:40.107Z,5.90
2022-07-25T11:32:09.802Z,5.80
2022-07-25T11:34:55.537Z,5.70
2022-07-25T11:37:22.307Z,5.47
2022-07-25T11:39:49.343Z,5.80
2022-07-25T11:42:18.629Z,5.28
2022-07-25T11:44:48.642Z,5.50
2022-07-25T11:47:30.981Z,5.45
2022-07-25T11:50:01.124Z,5.85
2022-07-25T11:52:30.127Z,6.60
2022-07-25T11:55:06.215Z,6.82
2022-07-25T11:57:35.784Z,7.03
2022-07-25T12:00:23.937Z,6.15
2022-07-25T12:02:51.123Z,6.63
2022-07-25T12:05:20.758Z,6.90
2022-07-25T12:07:50.218Z,7.53
2022-07-25T12:10:24.504Z,6.55
2022-07-25T12:12:56.073Z,6.78
2022-07-25T12:15:26.749Z,6.35
2022-07-25T12:17:55.999Z,6.18
2022-07-25T12:20:25.230Z,7.30
2022-07-25T12:22:54.927Z,7.30
2022-07-25T12:25:21.778Z,5.75
2022-07-25T12:27:49.278Z,7.15
2022-07-25T12:30:16.380Z,6.07
2022-07-25T12:32:43.560Z,5.38
2022-07-25T12:35:12.939Z,4.90
2022-07-25T12:37:41.271Z,4.78
2022-07-25T12:40:10.809Z,3.58
2022-07-25T12:42:37.467Z,3.33
2022-07-25T12:45:05.007Z,3.30
2022-07-25T12:47:31.662Z,3.15
2022-07-25T12:49:58.262Z,3.50
2022-07-25T12:52:24.884Z,3.38
2022-07-25T12:54:51.545Z,3.20
2022-07-25T12:57:18.218Z,3.20
2022-07-25T12:59:44.918Z,2.92
2022-07-25T13:02:11.567Z,2.95
2022-07-25T13:04:38.726Z,3.00
2022-07-25T13:07:05.574Z,3.15
2022-07-25T13:09:32.355Z,3.00
2022-07-25T13:11:59.315Z,2.80
2022-07-25T13:14:26.102Z,3.10
2022-07-25T13:16:52.964Z,3.40
2022-07-25T13:19:19.661Z,3.15
2022-07-25T13:21:46.262Z,3.35
2022-07-25T13:24:12.957Z,3.22
2022-07-25T13:26:40.087Z,3.20
2022-07-25T13:29:09.520Z,3.22
2022-07-25T13:31:41.036Z,2.95
2022-07-25T13:34:08.687Z,3.20
2022-07-25T13:36:36.926Z,3.03
2022-07-25T13:39:05.388Z,3.92
2022-07-25T13:41:32.740Z,3.70
2022-07-25T13:44:00.268Z,3.45
2022-07-25T13:46:26.911Z,3.20
2022-07-25T13:48:55.502Z,3.10
2022-07-25T13:51:22.142Z,3.22
2022-07-25T13:53:49.519Z,3.20
2022-07-25T13:56:16.216Z,5.00
2022-07-25T13:58:43.095Z,3.80
2022-07-25T14:01:11.481Z,3.90
2022-07-25T14:03:38.441Z,5.65
2022-07-25T14:06:05.852Z,3.10
2022-07-25T14:08:32.741Z,2.70
2022-07-25T14:10:59.554Z,3.60
2022-07-25T14:13:26.235Z,2.35
2022-07-25T14:15:53.000Z,3.55
2022-07-25T14:18:19.647Z,2.08
2022-07-25T14:20:46.484Z,2.10
2022-07-25T14:23:13.444Z,2.20
2022-07-25T14:25:40.078Z,2.13
2022-07-25T14:28:06.774Z,1.80
2022-07-25T14:30:33.735Z,1.60
2022-07-25T14:33:00.562Z,1.77
2022-07-25T14:35:32.133Z,1.65
2022-07-25T14:37:59.310Z,1.50
2022-07-25T14:40:26.262Z,1.45
2022-07-25T14:42:53.067Z,1.42
2022-07-25T14:45:21.863Z,1.48
2022-07-25T14:47:48.501Z,2.00
2022-07-25T14:50:15.391Z,1.52
2022-07-25T14:52:42.060Z,2.00
2022-07-25T14:55:09.400Z,1.60
2022-07-25T14:57:36.073Z,2.00
2022-07-25T15:00:05.002Z,1.88
2022-07-25T15:02:32.254Z,3.88
2022-07-25T15:04:58.885Z,2.83
2022-07-25T15:07:25.583Z,2.10
2022-07-25T15:09:52.231Z,2.20
2022-07-25T15:12:20.669Z,1.80
2022-07-25T15:14:47.412Z,4.40
2022-07-25T15:17:14.030Z,2.13
2022-07-25T15:19:40.601Z,2.28
2022-07-25T15:22:07.405Z,3.20
2022-07-25T15:24:44.446Z,1.80
2022-07-25T15:27:20.638Z,1.85
2022-07-25T15:29:47.231Z,1.80
2022-07-25T15:32:13.814Z,1.73
2022-07-25T15:34:40.440Z,1.60
2022-07-25T15:37:07.151Z,1.42
2022-07-25T15:39:33.736Z,2.00
2022-07-25T15:42:01.169Z,1.52
2022-07-25T15:44:27.769Z,1.70
2022-07-25T15:46:54.436Z,1.70
2022-07-25T15:49:21.534Z,1.80
2022-07-25T15:51:48.194Z,1.40
2022-07-25T15:54:14.805Z,1.60
2022-07-25T15:56:41.666Z,1.80
2022-07-25T15:59:08.616Z,1.48
2022-07-25T16:01:35.660Z,1.55
2022-07-25T16:04:02.462Z,1.67
2022-07-25T16:06:29.409Z,2.30
2022-07-25T16:08:56.075Z,1.80
2022-07-25T16:11:22.682Z,2.37
2022-07-25T16:13:49.319Z,2.50
2022-07-25T16:16:16.144Z,2.77
2022-07-25T16:18:43.169Z,2.90
2022-07-25T16:21:09.821Z,2.57
2022-07-25T16:23:41.519Z,2.50
2022-07-25T16:26:12.427Z,2.37
2022-07-25T16:28:40.449Z,2.17
2022-07-25T16:31:07.393Z,2.47
2022-07-25T16:33:34.317Z,2.47
2022-07-25T16:36:01.074Z,2.60
2022-07-25T16:38:28.800Z,2.60
2022-07-25T16:40:55.436Z,2.47
2022-07-25T16:43:23.005Z,2.40
2022-07-25T16:45:49.665Z,2.40
2022-07-25T16:48:16.278Z,2.20
2022-07-25T16:50:42.947Z,2.80
2022-07-25T16:53:09.673Z,2.43
2022-07-25T16:55:36.318Z,2.10
2022-07-25T16:58:02.951Z,2.40
2022-07-25T17:00:29.966Z,2.60
2022-07-25T17:02:56.689Z,2.27
2022-07-25T17:05:23.504Z,2.13
2022-07-25T17:07:57.058Z,2.00
2022-07-25T17:10:25.376Z,2.33
2022-07-25T17:12:51.983Z,2.17
2022-07-25T17:15:18.582Z,1.80
2022-07-25T17:17:45.233Z,2.20
2022-07-25T17:20:12.199Z,2.10
2022-07-25T17:22:38.876Z,1.90
2022-07-25T17:25:06.285Z,2.30
2022-07-25T17:27:32.993Z,1.93
2022-07-25T17:29:59.619Z,1.83
2022-07-25T17:32:29.653Z,1.67
2022-07-25T17:34:56.710Z,2.13
2022-07-25T17:37:24.243Z,1.83
2022-07-25T17:39:50.880Z,2.50
2022-07-25T17:42:22.053Z,1.98
2022-07-25T17:44:52.564Z,1.93
2022-07-25T17:47:19.578Z,2.05
2022-07-25T17:49:46.198Z,1.77
2022-07-25T17:52:12.878Z,1.67
2022-07-25T17:54:40.046Z,1.45
2022-07-25T17:57:06.861Z,1.75
2022-07-25T17:59:34.221Z,1.70
2022-07-25T18:02:02.404Z,1.57
2022-07-25T18:04:29.111Z,1.60
2022-07-25T18:06:55.780Z,1.60
2022-07-25T18:09:24.039Z,1.50
2022-07-25T18:11:51.103Z,1.50
2022-07-25T18:14:17.760Z,1.77
2022-07-25T18:16:45.370Z,1.40
2022-07-25T18:19:12.403Z,1.77
2022-07-25T18:21:39.065Z,1.30
2022-07-25T18:24:06.355Z,1.60
2022-07-25T18:26:34.354Z,1.40
2022-07-25T18:29:00.948Z,1.57
2022-07-25T18:31:27.848Z,1.47
2022-07-25T18:33:54.569Z,1.60
2022-07-25T18:36:21.307Z,1.40
2022-07-25T18:38:48.702Z,1.87
2022-07-25T18:41:31.014Z,1.33
2022-07-25T18:43:57.971Z,1.20
2022-07-25T18:46:25.515Z,1.27
2022-07-25T18:48:52.581Z,1.43
2022-07-25T18:51:20.522Z,1.50
2022-07-25T18:53:48.651Z,0.90
2022-07-25T18:56:16.347Z,1.30
2022-07-25T18:58:43.474Z,1.37
2022-07-25T19:01:10.506Z,1.33
2022-07-25T19:03:37.633Z,1.00
2022-07-25T19:06:05.435Z,1.20
2022-07-25T19:08:32.545Z,1.10
2022-07-25T19:10:59.214Z,1.27
2022-07-25T19:13:48.181Z,1.20
2022-07-25T19:16:12.769Z,1.30
2022-07-25T19:18:40.168Z,1.33
2022-07-25T19:21:07.065Z,1.30
2022-07-25T19:23:33.898Z,1.47
2022-07-25T19:26:01.972Z,1.17
2022-07-25T19:28:29.197Z,1.40
2022-07-25T19:30:56.854Z,1.10
2022-07-25T19:33:24.242Z,1.50
2022-07-25T19:35:51.066Z,1.20
2022-07-25T19:38:19.403Z,1.47
2022-07-25T19:40:46.147Z,1.20
2022-07-25T19:43:12.956Z,1.07
2022-07-25T19:45:39.764Z,1.50
2022-07-25T19:48:06.928Z,1.10
2022-07-25T19:50:34.238Z,1.13
2022-07-25T19:53:01.399Z,1.20
2022-07-25T19:55:28.412Z,1.30
2022-07-25T19:57:55.040Z,1.03
2022-07-25T20:00:21.860Z,1.53
2022-07-25T20:02:48.530Z,1.40
2022-07-25T20:05:15.263Z,1.30
2022-07-25T20:07:41.924Z,1.23
2022-07-25T20:10:09.104Z,1.37
2022-07-25T20:12:36.156Z,1.00
2022-07-25T20:15:03.251Z,1.30
2022-07-25T20:17:29.899Z,1.40
2022-07-25T20:19:56.527Z,1.20
2022-07-25T20:22:23.323Z,1.43
2022-07-25T20:24:49.960Z,1.40
2022-07-25T20:27:16.670Z,1.10
2022-07-25T20:29:43.355Z,0.90
2022-07-25T20:32:09.941Z,1.40
2022-07-25T20:34:36.579Z,1.40
2022-07-25T20:37:03.313Z,1.30
2022-07-25T20:39:29.915Z,1.17
2022-07-25T20:41:56.754Z,1.30
2022-07-25T20:44:23.583Z,1.40
2022-07-25T20:46:51.445Z,1.20
2022-07-25T20:49:18.117Z,1.20
2022-07-25T20:51:44.869Z,1.27
2022-07-25T20:54:11.585Z,1.20
2022-07-25T20:56:38.378Z,1.40
2022-07-25T20:59:05.434Z,1.00
2022-07-25T21:01:32.467Z,1.53
2022-07-25T21:03:59.146Z,1.40
2022-07-25T21:06:27.131Z,1.33
2022-07-25T21:08:54.213Z,1.27
2022-07-25T21:11:21.097Z,0.77
2022-07-25T21:13:48.184Z,1.10
2022-07-25T21:16:14.887Z,1.37
2022-07-25T21:18:41.675Z,1.37
2022-07-25T21:21:12.124Z,1.23
2022-07-25T21:23:39.191Z,1.30
2022-07-25T21:26:05.888Z,1.30
2022-07-25T21:28:33.698Z,1.37
2022-07-25T21:31:00.596Z,1.13
2022-07-25T21:33:27.302Z,1.20
2022-07-25T21:35:54.088Z,1.47
2022-07-25T21:38:26.653Z,1.57
2022-07-25T21:40:55.733Z,1.70
2022-07-25T21:43:22.551Z,1.60
2022-07-25T21:45:49.762Z,1.10
2022-07-25T21:48:16.415Z,1.37
2022-07-25T21:50:48.746Z,1.30
2022-07-25T21:53:17.206Z,1.27
2022-07-25T21:55:43.868Z,1.10
2022-07-25T21:58:10.524Z,1.33
2022-07-25T22:00:43.996Z,1.50
2022-07-25T22:03:12.289Z,1.30
2022-07-25T22:05:39.430Z,1.40
2022-07-25T22:08:06.132Z,1.30
2022-07-25T22:10:33.476Z,1.20
2022-07-25T22:13:00.314Z,1.40
2022-07-25T22:15:27.395Z,1.23
2022-07-25T22:17:54.344Z,1.23
2022-07-25T22:20:21.072Z,1.50
2022-07-25T22:22:48.601Z,1.40
2022-07-25T22:25:16.382Z,1.40
2022-07-25T22:27:43.766Z,1.43
2022-07-25T22:30:14.857Z,1.27
2022-07-25T22:32:46.013Z,1.50
2022-07-25T22:35:12.620Z,1.07
2022-07-25T22:37:39.265Z,1.47
2022-07-25T22:40:06.414Z,1.07
2022-07-25T22:42:33.058Z,1.40
2022-07-25T22:44:59.721Z,1.50
2022-07-25T22:47:26.365Z,1.50
2022-07-25T22:49:52.960Z,1.43
2022-07-25T22:52:19.561Z,1.57
2022-07-25T22:54:46.348Z,1.47
2022-07-25T22:57:13.065Z,1.60
2022-07-25T22:59:39.658Z,1.33
2022-07-25T23:02:06.293Z,1.23
2022-07-25T23:04:33.129Z,1.33
2022-07-25T23:06:59.753Z,1.67
2022-07-25T23:09:34.802Z,1.60
2022-07-25T23:12:04.733Z,1.60
2022-07-25T23:14:31.395Z,1.33
2022-07-25T23:17:16.730Z,1.70
2022-07-25T23:19:44.510Z,1.60
2022-07-25T23:22:11.429Z,1.33
2022-07-25T23:24:38.302Z,1.50
2022-07-25T23:27:05.185Z,1.70
2022-07-25T23:29:31.973Z,1.37
2022-07-25T23:31:58.668Z,1.77
2022-07-25T23:34:25.549Z,1.27
2022-07-25T23:36:52.191Z,1.70
2022-07-25T23:39:18.787Z,1.43
2022-07-25T23:41:45.612Z,1.20
2022-07-25T23:44:12.335Z,1.70
2022-07-25T23:46:39.422Z,1.40
2022-07-25T23:49:07.199Z,1.93
2022-07-25T23:51:34.161Z,1.27
2022-07-25T23:54:00.938Z,1.60
2022-07-25T23:56:27.697Z,1.60
2022-07-25T23:58:54.422Z,1.70
